This is the latest recevied weather packets stored in our database for station/object N0MR. If no packets are shown the sender has not sent any weather packets the latest 10 day(s).
| Time | Temp. | Humidity | Pressure | Rain* | Wind** | Luminosity | Snow |
|---|---|---|---|---|---|---|---|
| 1777569120 | 2.22° C | 62% | 1018.9 hPa | 0 mm | - | - | - |
| 1777568520 | 2.22° C | 62% | 1018.9 hPa | 0 mm | - | - | - |
| 1777567921 | 2.78° C | 60% | 1018.7 hPa | 0 mm | - | - | - |
| 1777567321 | 2.78° C | 60% | 1018.7 hPa | 0 mm | - | - | - |
| 1777566121 | 2.22° C | 60% | 1018.8 hPa | 0 mm | - | - | - |
| 1777565521 | 2.22° C | 60% | 1018.8 hPa | 0 mm | - | - | - |
| 1777564919 | 1.67° C | 61% | 1018.7 hPa | 0 mm | - | - | - |
| 1777564321 | 1.67° C | 61% | 1018.7 hPa | 0 mm | - | - | - |
| 1777563720 | 1.67° C | 66% | 1018.7 hPa | 0 mm | - | - | - |
| 1777563121 | 1.67° C | 66% | 1018.7 hPa | 0 mm | - | - | - |
| 1777562519 | 1.67° C | 65% | 1018.7 hPa | 0 mm | - | - | - |
| 1777561920 | 1.67° C | 65% | 1018.7 hPa | 0 mm | - | - | - |
| 1777561321 | 1.67° C | 68% | 1018.8 hPa | 0 mm | - | - | - |
| 1777560722 | 1.67° C | 68% | 1018.8 hPa | 0 mm | - | - | - |
| 1777560121 | 2.22° C | 67% | 1018.8 hPa | 0 mm | - | - | - |
| 1777559521 | 2.22° C | 67% | 1018.8 hPa | 0 mm | - | - | - |
| 1777558921 | 1.67° C | 72% | 1018.7 hPa | 0 mm | - | - | - |
| 1777558320 | 1.67° C | 72% | 1018.7 hPa | 0 mm | - | - | - |
| 1777557121 | 1.67° C | 76% | 1018.8 hPa | 0 mm | - | - | - |
| 1777556520 | 1.67° C | 77% | 1018.7 hPa | 0 mm | - | - | - |
| 1777555920 | 1.67° C | 77% | 1018.7 hPa | 0 mm | - | - | - |
| 1777555321 | 1.11° C | 80% | 1018.6 hPa | 0 mm | - | - | - |
| 1777554721 | 0.56° C | 84% | 1018.7 hPa | 0 mm | - | - | - |
| 1777554120 | 0.56° C | 84% | 1018.7 hPa | 0 mm | - | - | - |
| 1777553522 | 0.56° C | 86% | 1018.6 hPa | 0 mm | - | - | - |
* Rain latest hour (hover to see other rain measurements)
** Current wind speed in m/s (hover to see current wind gust speed)